Airfield :
LOGIN :

Register | Disclaimer

   EN    FR    IT 

 










Legend :    VFR   Marginal VFR   IFR   Intensive IFR   Very Intensive IFR
Visi :
Ceiling :
>= 8 km
>= 3000ft
5 to 8 km
1000 to 3000 ft
1500m to 5 km
500 to 1000 ft
800 to 1500m
200 to 500 ft
< 800m
< 200 ft
Symbols :   Thunderstorms  Fog  Heavy snow  Heavy precipitations  Wind > 20 kt
SIGMETs :     Misc.  Thunderstorms  Icing  Turbulence  Mountain Waves  Volcanic Ashes







- Airport Elevation : 1682 ft
- IATA code : VIT


LEVT - Vitoria Gasteiz

CURRENT METAR :
  • 162200Z VRB02KT 9999 SCT014 BKN035 02/01 Q1028

EXPIRED METARs :
  • 162130Z VRB01KT 9999 -RA SCT014 BKN024 03/02 Q1028
  • 162100Z VRB02KT 9999 -RA SCT014 BKN024 03/03 Q1028
  • 162030Z VRB02KT 9999 SCT014 BKN030 02/02 Q1027
  • 162000Z 21003KT 170V230 9999 -RA SCT014 BKN030 02/01 Q1027
  • 161930Z 05003KT 9999 -RA SCT012 BKN025 03/02 Q1027

TAF TAF LEVT
Valid from the 16 at 18:00 until the 17 at 18:00 UTC


161700Z 1618/1718 12010KT 9999 SCT015 BKN030 TX08/1714Z TN01/1706Z
PROB40
TEMPO 1618/1718 RA BKN010
TEMPO 1620/1712 VRB05KT
No reported NOTAMs for that airfield.



MET'MAP, your aeronautical weather chart ! - Copyright ORBIFLY December 2007 - Disclaimer

ORBIFLY MET'MAP TEAM :

Programming & Development : Alexandra Zaïnal
Concept & Development : Baudouin d'Aumeries
Co-Development & Prog : Marc-Olivier Méhu
Technical & hardware support : Manuel Goepfert

Contact : metmap@orbifly.com




SOURCES & CREDITS :

   NOAA